sensor_id;sensor_type;location;lat;lon;timestamp;pressure;altitude;pressure_sealevel;temperature;humidity
72925;BME280;61070;50.794;7.054;2022-12-18T00:01:32;102150.88;;;-6.85;98.78
72925;BME280;61070;50.794;7.054;2022-12-18T00:03:59;102158.28;;;-6.67;97.78
72925;BME280;61070;50.794;7.054;2022-12-18T00:06:26;102160.31;;;-6.63;97.38
72925;BME280;61070;50.794;7.054;2022-12-18T00:08:51;102148.47;;;-6.61;96.69
72925;BME280;61070;50.794;7.054;2022-12-18T00:11:19;102137.94;;;-6.64;96.25
72925;BME280;61070;50.794;7.054;2022-12-18T00:13:46;102148.50;;;-6.71;96.46
72925;BME280;61070;50.794;7.054;2022-12-18T00:16:14;102152.75;;;-6.72;96.71
72925;BME280;61070;50.794;7.054;2022-12-18T00:18:40;102152.63;;;-6.73;96.36
72925;BME280;61070;50.794;7.054;2022-12-18T00:21:08;102153.88;;;-6.68;96.50
72925;BME280;61070;50.794;7.054;2022-12-18T00:23:36;102149.78;;;-6.66;95.90
72925;BME280;61070;50.794;7.054;2022-12-18T00:26:04;102156.84;;;-6.64;95.48
72925;BME280;61070;50.794;7.054;2022-12-18T00:28:30;102155.41;;;-6.60;95.91
72925;BME280;61070;50.794;7.054;2022-12-18T00:31:04;102160.56;;;-6.60;95.92
72925;BME280;61070;50.794;7.054;2022-12-18T00:33:30;102159.44;;;-6.64;96.22
72925;BME280;61070;50.794;7.054;2022-12-18T00:36:06;102156.47;;;-6.68;96.44
72925;BME280;61070;50.794;7.054;2022-12-18T00:38:33;102158.78;;;-6.61;96.41
72925;BME280;61070;50.794;7.054;2022-12-18T00:40:59;102161.16;;;-6.75;95.95
72925;BME280;61070;50.794;7.054;2022-12-18T00:43:24;102165.78;;;-6.81;96.50
72925;BME280;61070;50.794;7.054;2022-12-18T00:45:50;102167.50;;;-6.59;96.07
72925;BME280;61070;50.794;7.054;2022-12-18T00:48:15;102163.97;;;-6.71;95.74
72925;BME280;61070;50.794;7.054;2022-12-18T00:50:40;102179.72;;;-6.79;95.91
72925;BME280;61070;50.794;7.054;2022-12-18T00:53:06;102162.13;;;-6.62;95.65
72925;BME280;61070;50.794;7.054;2022-12-18T00:55:39;102167.94;;;-6.65;95.27
72925;BME280;61070;50.794;7.054;2022-12-18T00:58:04;102163.28;;;-6.69;94.48
72925;BME280;61070;50.794;7.054;2022-12-18T01:00:30;102153.16;;;-6.67;95.20
72925;BME280;61070;50.794;7.054;2022-12-18T01:02:55;102157.00;;;-6.72;95.19
72925;BME280;61070;50.794;7.054;2022-12-18T01:05:20;102153.41;;;-6.75;95.85
72925;BME280;61070;50.794;7.054;2022-12-18T01:07:46;102153.97;;;-6.89;95.57
72925;BME280;61070;50.794;7.054;2022-12-18T01:10:12;102153.78;;;-6.70;94.50
72925;BME280;61070;50.794;7.054;2022-12-18T01:12:38;102151.94;;;-7.03;95.26
72925;BME280;61070;50.794;7.054;2022-12-18T01:15:04;102155.31;;;-7.14;95.46
72925;BME280;61070;50.794;7.054;2022-12-18T01:17:30;102161.25;;;-7.25;95.88
72925;BME280;61070;50.794;7.054;2022-12-18T01:19:55;102152.13;;;-7.32;96.47
72925;BME280;61070;50.794;7.054;2022-12-18T01:22:20;102152.78;;;-7.35;96.83
72925;BME280;61070;50.794;7.054;2022-12-18T01:24:46;102160.22;;;-7.27;97.23
72925;BME280;61070;50.794;7.054;2022-12-18T01:27:11;102159.72;;;-7.34;97.08
72925;BME280;61070;50.794;7.054;2022-12-18T01:29:36;102167.06;;;-7.38;97.31
72925;BME280;61070;50.794;7.054;2022-12-18T01:32:02;102152.91;;;-7.43;97.51
72925;BME280;61070;50.794;7.054;2022-12-18T01:34:27;102146.59;;;-7.37;97.68
72925;BME280;61070;50.794;7.054;2022-12-18T01:36:52;102143.63;;;-7.31;97.75
72925;BME280;61070;50.794;7.054;2022-12-18T01:39:18;102150.59;;;-7.30;98.01
72925;BME280;61070;50.794;7.054;2022-12-18T01:41:43;102151.84;;;-7.25;98.13
72925;BME280;61070;50.794;7.054;2022-12-18T01:47:29;102159.72;;;-7.13;97.06
72925;BME280;61070;50.794;7.054;2022-12-18T01:49:57;102162.78;;;-7.17;97.55
72925;BME280;61070;50.794;7.054;2022-12-18T01:52:26;102154.19;;;-7.28;98.05
72925;BME280;61070;50.794;7.054;2022-12-18T01:54:53;102158.56;;;-7.37;98.39
72925;BME280;61070;50.794;7.054;2022-12-18T01:57:19;102155.50;;;-7.43;98.76
72925;BME280;61070;50.794;7.054;2022-12-18T01:59:48;102156.03;;;-7.47;99.06
72925;BME280;61070;50.794;7.054;2022-12-18T02:02:16;102149.81;;;-7.39;99.11
72925;BME280;61070;50.794;7.054;2022-12-18T02:04:42;102157.03;;;-7.45;98.63
72925;BME280;61070;50.794;7.054;2022-12-18T02:09:50;102140.41;;;-7.28;97.79
72925;BME280;61070;50.794;7.054;2022-12-18T02:12:30;102142.34;;;-7.36;97.74
72925;BME280;61070;50.794;7.054;2022-12-18T02:15:28;102144.16;;;-7.35;98.39
72925;BME280;61070;50.794;7.054;2022-12-18T02:18:11;102147.38;;;-7.38;98.59
72925;BME280;61070;50.794;7.054;2022-12-18T02:20:47;102144.91;;;-7.36;98.82
72925;BME280;61070;50.794;7.054;2022-12-18T02:23:32;102148.13;;;-7.39;98.91
72925;BME280;61070;50.794;7.054;2022-12-18T02:28:51;102144.09;;;-7.15;99.48
72925;BME280;61070;50.794;7.054;2022-12-18T02:31:25;102142.44;;;-7.14;98.31
72925;BME280;61070;50.794;7.054;2022-12-18T02:33:56;102143.72;;;-6.99;97.44
72925;BME280;61070;50.794;7.054;2022-12-18T02:36:24;102152.31;;;-6.88;96.67
72925;BME280;61070;50.794;7.054;2022-12-18T02:38:52;102150.75;;;-6.86;96.50
72925;BME280;61070;50.794;7.054;2022-12-18T02:41:18;102154.59;;;-6.91;96.23
72925;BME280;61070;50.794;7.054;2022-12-18T02:43:55;102140.91;;;-7.02;96.95
72925;BME280;61070;50.794;7.054;2022-12-18T02:46:31;102138.16;;;-7.04;97.59
72925;BME280;61070;50.794;7.054;2022-12-18T02:55:36;102150.44;;;-7.21;98.39
72925;BME280;61070;50.794;7.054;2022-12-18T02:58:16;102134.75;;;-7.24;98.24
72925;BME280;61070;50.794;7.054;2022-12-18T03:01:19;102135.38;;;-7.27;98.52
72925;BME280;61070;50.794;7.054;2022-12-18T03:03:52;102131.13;;;-7.26;98.22
72925;BME280;61070;50.794;7.054;2022-12-18T03:06:32;102140.28;;;-7.30;98.56
72925;BME280;61070;50.794;7.054;2022-12-18T03:09:08;102146.09;;;-7.32;98.70
72925;BME280;61070;50.794;7.054;2022-12-18T03:11:38;102141.84;;;-7.32;98.79
72925;BME280;61070;50.794;7.054;2022-12-18T03:14:25;102141.97;;;-7.41;98.51
72925;BME280;61070;50.794;7.054;2022-12-18T03:16:54;102134.91;;;-7.43;99.09
72925;BME280;61070;50.794;7.054;2022-12-18T03:19:25;102130.00;;;-7.30;99.17
72925;BME280;61070;50.794;7.054;2022-12-18T03:21:54;102134.63;;;-7.36;98.55
72925;BME280;61070;50.794;7.054;2022-12-18T03:24:21;102133.59;;;-7.48;98.71
72925;BME280;61070;50.794;7.054;2022-12-18T03:26:55;102116.13;;;-7.52;98.70
72925;BME280;61070;50.794;7.054;2022-12-18T03:29:29;102120.63;;;-7.50;99.12
72925;BME280;61070;50.794;7.054;2022-12-18T03:32:07;102115.63;;;-7.58;99.18
72925;BME280;61070;50.794;7.054;2022-12-18T03:34:37;102133.78;;;-7.57;99.24
72925;BME280;61070;50.794;7.054;2022-12-18T03:37:04;102110.19;;;-7.41;98.80
72925;BME280;61070;50.794;7.054;2022-12-18T03:39:30;102106.31;;;-7.36;98.63
72925;BME280;61070;50.794;7.054;2022-12-18T03:44:40;102113.91;;;-7.48;98.29
72925;BME280;61070;50.794;7.054;2022-12-18T03:49:45;102121.03;;;-7.55;98.71
72925;BME280;61070;50.794;7.054;2022-12-18T03:52:23;102120.78;;;-7.58;98.88
72925;BME280;61070;50.794;7.054;2022-12-18T03:54:52;102111.50;;;-7.56;98.87
72925;BME280;61070;50.794;7.054;2022-12-18T03:57:21;102103.13;;;-7.44;98.65
72925;BME280;61070;50.794;7.054;2022-12-18T03:59:51;102103.78;;;-7.46;97.73
72925;BME280;61070;50.794;7.054;2022-12-18T04:02:20;102104.94;;;-7.43;98.14
72925;BME280;61070;50.794;7.054;2022-12-18T04:04:51;102112.66;;;-7.53;98.14
72925;BME280;61070;50.794;7.054;2022-12-18T04:07:17;102107.50;;;-7.53;97.79
72925;BME280;61070;50.794;7.054;2022-12-18T04:09:44;102112.66;;;-7.53;97.72
72925;BME280;61070;50.794;7.054;2022-12-18T04:12:10;102106.63;;;-7.53;97.90
72925;BME280;61070;50.794;7.054;2022-12-18T04:14:36;102099.03;;;-7.62;98.19
72925;BME280;61070;50.794;7.054;2022-12-18T04:17:02;102093.63;;;-7.65;98.46
72925;BME280;61070;50.794;7.054;2022-12-18T04:19:27;102099.03;;;-7.62;98.71
72925;BME280;61070;50.794;7.054;2022-12-18T04:21:52;102099.03;;;-7.62;98.15
72925;BME280;61070;50.794;7.054;2022-12-18T04:24:18;102088.97;;;-7.49;97.93
72925;BME280;61070;50.794;7.054;2022-12-18T04:26:43;102102.63;;;-7.60;98.54
72925;BME280;61070;50.794;7.054;2022-12-18T04:29:08;102098.13;;;-7.52;98.33
72925;BME280;61070;50.794;7.054;2022-12-18T04:31:34;102095.53;;;-7.42;98.21
72925;BME280;61070;50.794;7.054;2022-12-18T04:33:59;102097.34;;;-7.51;98.09
72925;BME280;61070;50.794;7.054;2022-12-18T04:36:24;102098.13;;;-7.52;97.90
72925;BME280;61070;50.794;7.054;2022-12-18T04:38:50;102099.00;;;-7.42;97.47
72925;BME280;61070;50.794;7.054;2022-12-18T04:41:15;102101.59;;;-7.42;97.89
72925;BME280;61070;50.794;7.054;2022-12-18T04:43:40;102091.94;;;-7.44;97.41
72925;BME280;61070;50.794;7.054;2022-12-18T04:46:06;102098.66;;;-7.46;97.45
72925;BME280;61070;50.794;7.054;2022-12-18T04:48:33;102090.03;;;-7.47;97.60
72925;BME280;61070;50.794;7.054;2022-12-18T04:50:58;102094.09;;;-7.39;97.67
72925;BME280;61070;50.794;7.054;2022-12-18T04:53:24;102102.22;;;-7.34;97.19
72925;BME280;61070;50.794;7.054;2022-12-18T04:55:49;102104.03;;;-7.33;97.29
72925;BME280;61070;50.794;7.054;2022-12-18T04:58:14;102101.03;;;-7.38;97.32
72925;BME280;61070;50.794;7.054;2022-12-18T05:00:40;102095.75;;;-7.29;97.10
72925;BME280;61070;50.794;7.054;2022-12-18T05:03:05;102094.84;;;-7.19;97.07
72925;BME280;61070;50.794;7.054;2022-12-18T05:05:31;102092.50;;;-7.16;96.64
72925;BME280;61070;50.794;7.054;2022-12-18T05:07:56;102091.50;;;-7.18;96.13
72925;BME280;61070;50.794;7.054;2022-12-18T05:10:21;102082.88;;;-7.19;96.24
72925;BME280;61070;50.794;7.054;2022-12-18T05:12:46;102076.72;;;-7.31;96.64
72925;BME280;61070;50.794;7.054;2022-12-18T05:15:31;102074.63;;;-7.15;96.12
72925;BME280;61070;50.794;7.054;2022-12-18T05:17:57;102071.59;;;-7.31;96.16
72925;BME280;61070;50.794;7.054;2022-12-18T05:20:23;102074.03;;;-7.32;96.81
72925;BME280;61070;50.794;7.054;2022-12-18T05:22:48;102071.84;;;-7.38;96.46
72925;BME280;61070;50.794;7.054;2022-12-18T05:25:14;102072.63;;;-7.49;97.48
72925;BME280;61070;50.794;7.054;2022-12-18T05:27:40;102073.81;;;-7.46;97.39
72925;BME280;61070;50.794;7.054;2022-12-18T05:30:05;102072.41;;;-7.52;97.59
72925;BME280;61070;50.794;7.054;2022-12-18T05:32:31;102079.22;;;-7.53;97.55
72925;BME280;61070;50.794;7.054;2022-12-18T05:34:56;102074.84;;;-7.54;97.43
72925;BME280;61070;50.794;7.054;2022-12-18T05:37:22;102068.16;;;-7.52;97.28
72925;BME280;61070;50.794;7.054;2022-12-18T05:39:47;102080.38;;;-7.59;97.41
72925;BME280;61070;50.794;7.054;2022-12-18T05:42:13;102083.34;;;-7.65;97.65
72925;BME280;61070;50.794;7.054;2022-12-18T05:44:38;102087.06;;;-7.72;98.05
72925;BME280;61070;50.794;7.054;2022-12-18T05:47:03;102099.81;;;-7.73;98.19
72925;BME280;61070;50.794;7.054;2022-12-18T05:49:29;102090.69;;;-7.70;98.02
72925;BME280;61070;50.794;7.054;2022-12-18T05:51:54;102104.69;;;-7.76;98.17
72925;BME280;61070;50.794;7.054;2022-12-18T05:54:19;102107.03;;;-7.79;98.67
72925;BME280;61070;50.794;7.054;2022-12-18T05:56:45;102112.66;;;-7.83;98.35
72925;BME280;61070;50.794;7.054;2022-12-18T05:59:10;102116.28;;;-7.81;98.19
72925;BME280;61070;50.794;7.054;2022-12-18T06:01:35;102112.53;;;-7.85;98.27
72925;BME280;61070;50.794;7.054;2022-12-18T06:04:01;102118.44;;;-7.86;98.43
72925;BME280;61070;50.794;7.054;2022-12-18T06:06:27;102123.22;;;-7.80;98.36
72925;BME280;61070;50.794;7.054;2022-12-18T06:08:53;102126.94;;;-7.87;98.31
72925;BME280;61070;50.794;7.054;2022-12-18T06:11:21;102129.75;;;-7.94;98.49
72925;BME280;61070;50.794;7.054;2022-12-18T06:13:50;102140.19;;;-7.93;98.80
72925;BME280;61070;50.794;7.054;2022-12-18T06:16:16;102142.13;;;-7.90;99.00
72925;BME280;61070;50.794;7.054;2022-12-18T06:18:41;102143.13;;;-7.98;98.85
72925;BME280;61070;50.794;7.054;2022-12-18T06:21:06;102144.03;;;-7.98;98.92
72925;BME280;61070;50.794;7.054;2022-12-18T06:23:32;102147.63;;;-7.96;99.17
72925;BME280;61070;50.794;7.054;2022-12-18T06:25:57;102146.50;;;-7.79;98.47
72925;BME280;61070;50.794;7.054;2022-12-18T06:28:23;102146.50;;;-7.79;98.69
72925;BME280;61070;50.794;7.054;2022-12-18T06:30:48;102148.66;;;-7.73;98.37
72925;BME280;61070;50.794;7.054;2022-12-18T06:33:15;102145.44;;;-7.60;97.85
72925;BME280;61070;50.794;7.054;2022-12-18T06:35:40;102145.06;;;-7.55;97.53
72925;BME280;61070;50.794;7.054;2022-12-18T06:38:05;102140.66;;;-7.25;97.42
72925;BME280;61070;50.794;7.054;2022-12-18T06:40:31;102139.63;;;-7.27;97.36
72925;BME280;61070;50.794;7.054;2022-12-18T06:42:57;102134.50;;;-7.27;97.26
72925;BME280;61070;50.794;7.054;2022-12-18T06:45:22;102132.53;;;-7.10;96.65
72925;BME280;61070;50.794;7.054;2022-12-18T06:47:47;102129.03;;;-7.00;96.11
72925;BME280;61070;50.794;7.054;2022-12-18T06:50:13;102132.66;;;-7.08;96.13
72925;BME280;61070;50.794;7.054;2022-12-18T06:52:39;102141.81;;;-7.12;96.53
72925;BME280;61070;50.794;7.054;2022-12-18T06:55:08;102132.91;;;-7.15;96.43
72925;BME280;61070;50.794;7.054;2022-12-18T06:57:34;102132.09;;;-6.94;95.75
72925;BME280;61070;50.794;7.054;2022-12-18T06:59:59;102135.00;;;-7.11;96.18
72925;BME280;61070;50.794;7.054;2022-12-18T07:02:24;102130.63;;;-7.12;96.10
72925;BME280;61070;50.794;7.054;2022-12-18T07:04:50;102130.63;;;-7.12;96.37
72925;BME280;61070;50.794;7.054;2022-12-18T07:07:15;102135.22;;;-7.08;95.89
72925;BME280;61070;50.794;7.054;2022-12-18T07:09:40;102131.25;;;-7.15;95.64
72925;BME280;61070;50.794;7.054;2022-12-18T07:12:06;102125.03;;;-6.96;95.73
72925;BME280;61070;50.794;7.054;2022-12-18T07:14:32;102124.19;;;-7.17;95.87
72925;BME280;61070;50.794;7.054;2022-12-18T07:16:58;102132.56;;;-7.20;96.29
72925;BME280;61070;50.794;7.054;2022-12-18T07:19:23;102128.28;;;-7.09;95.66
72925;BME280;61070;50.794;7.054;2022-12-18T07:21:49;102139.97;;;-7.03;95.43
72925;BME280;61070;50.794;7.054;2022-12-18T07:24:15;102128.03;;;-7.02;96.03
72925;BME280;61070;50.794;7.054;2022-12-18T07:26:40;102134.44;;;-7.07;95.95
72925;BME280;61070;50.794;7.054;2022-12-18T07:29:05;102146.19;;;-7.11;96.15
72925;BME280;61070;50.794;7.054;2022-12-18T07:31:31;102129.63;;;-6.92;95.91
72925;BME280;61070;50.794;7.054;2022-12-18T07:33:56;102134.44;;;-7.07;96.24
72925;BME280;61070;50.794;7.054;2022-12-18T07:36:23;102133.00;;;-6.93;96.09
72925;BME280;61070;50.794;7.054;2022-12-18T07:38:49;102133.44;;;-7.09;96.21
72925;BME280;61070;50.794;7.054;2022-12-18T07:41:15;102132.78;;;-7.07;96.21
72925;BME280;61070;50.794;7.054;2022-12-18T07:43:41;102120.41;;;-7.00;95.71
72925;BME280;61070;50.794;7.054;2022-12-18T07:46:07;102119.38;;;-7.03;95.93
72925;BME280;61070;50.794;7.054;2022-12-18T07:48:33;102115.53;;;-7.08;96.20
72925;BME280;61070;50.794;7.054;2022-12-18T07:50:59;102107.53;;;-7.00;96.16
72925;BME280;61070;50.794;7.054;2022-12-18T07:53:25;102118.44;;;-6.93;96.33
72925;BME280;61070;50.794;7.054;2022-12-18T07:55:56;102119.19;;;-6.84;96.12
72925;BME280;61070;50.794;7.054;2022-12-18T07:58:21;102125.31;;;-6.71;95.89
72925;BME280;61070;50.794;7.054;2022-12-18T08:00:47;102119.69;;;-6.78;95.99
72925;BME280;61070;50.794;7.054;2022-12-18T08:03:13;102107.13;;;-6.63;94.80
72925;BME280;61070;50.794;7.054;2022-12-18T08:05:38;102102.88;;;-6.62;94.85
72925;BME280;61070;50.794;7.054;2022-12-18T08:08:04;102100.53;;;-6.59;94.90
72925;BME280;61070;50.794;7.054;2022-12-18T08:10:29;102102.94;;;-6.51;94.45
72925;BME280;61070;50.794;7.054;2022-12-18T08:12:54;102096.66;;;-6.54;94.73
72925;BME280;61070;50.794;7.054;2022-12-18T08:15:20;102092.41;;;-6.54;94.91
72925;BME280;61070;50.794;7.054;2022-12-18T08:17:45;102087.59;;;-6.49;94.59
72925;BME280;61070;50.794;7.054;2022-12-18T08:20:10;102076.94;;;-6.32;94.15
72925;BME280;61070;50.794;7.054;2022-12-18T08:22:36;102080.53;;;-6.30;94.00
72925;BME280;61070;50.794;7.054;2022-12-18T08:25:02;102072.50;;;-6.23;93.82
72925;BME280;61070;50.794;7.054;2022-12-18T08:27:28;102064.63;;;-6.24;93.79
72925;BME280;61070;50.794;7.054;2022-12-18T08:29:54;102068.88;;;-6.25;94.00
72925;BME280;61070;50.794;7.054;2022-12-18T08:32:19;102077.31;;;-6.16;94.06
72925;BME280;61070;50.794;7.054;2022-12-18T08:34:44;102065.94;;;-6.07;93.58
72925;BME280;61070;50.794;7.054;2022-12-18T08:37:09;102071.09;;;-6.07;93.82
72925;BME280;61070;50.794;7.054;2022-12-18T08:39:35;102058.34;;;-5.82;92.66
72925;BME280;61070;50.794;7.054;2022-12-18T08:42:00;102056.44;;;-5.85;92.76
72925;BME280;61070;50.794;7.054;2022-12-18T08:44:43;102057.78;;;-5.78;92.94
72925;BME280;61070;50.794;7.054;2022-12-18T08:47:09;102061.81;;;-5.82;92.86
72925;BME280;61070;50.794;7.054;2022-12-18T08:49:34;102065.88;;;-5.74;92.90
72925;BME280;61070;50.794;7.054;2022-12-18T08:52:00;102064.88;;;-5.76;93.13
72925;BME280;61070;50.794;7.054;2022-12-18T08:54:25;102059.16;;;-5.72;92.96
72925;BME280;61070;50.794;7.054;2022-12-18T08:56:51;102062.19;;;-5.66;92.58
72925;BME280;61070;50.794;7.054;2022-12-18T08:59:17;102042.91;;;-5.59;92.54
72925;BME280;61070;50.794;7.054;2022-12-18T09:01:43;102048.63;;;-5.51;92.25
72925;BME280;61070;50.794;7.054;2022-12-18T09:04:12;102050.31;;;-5.40;92.17
72925;BME280;61070;50.794;7.054;2022-12-18T09:06:38;102054.25;;;-5.34;92.40
72925;BME280;61070;50.794;7.054;2022-12-18T09:09:04;102055.03;;;-5.23;91.72
72925;BME280;61070;50.794;7.054;2022-12-18T09:11:30;102058.06;;;-5.17;91.40
72925;BME280;61070;50.794;7.054;2022-12-18T09:13:57;102060.28;;;-5.10;91.32
72925;BME280;61070;50.794;7.054;2022-12-18T09:16:24;102053.47;;;-5.09;91.60
72925;BME280;61070;50.794;7.054;2022-12-18T09:18:50;102046.59;;;-4.97;90.95
72925;BME280;61070;50.794;7.054;2022-12-18T09:21:20;102055.47;;;-4.93;90.93
72925;BME280;61070;50.794;7.054;2022-12-18T09:23:50;102047.25;;;-5.00;91.56
72925;BME280;61070;50.794;7.054;2022-12-18T09:26:15;102050.50;;;-4.90;91.07
72925;BME280;61070;50.794;7.054;2022-12-18T09:28:41;102052.09;;;-4.92;91.04
72925;BME280;61070;50.794;7.054;2022-12-18T09:31:07;102048.78;;;-4.66;90.43
72925;BME280;61070;50.794;7.054;2022-12-18T09:33:37;102041.38;;;-4.62;90.00
72925;BME280;61070;50.794;7.054;2022-12-18T09:36:04;102041.47;;;-4.60;90.10
72925;BME280;61070;50.794;7.054;2022-12-18T09:38:30;102027.59;;;-4.49;89.85
72925;BME280;61070;50.794;7.054;2022-12-18T09:41:00;102025.81;;;-4.25;89.09
72925;BME280;61070;50.794;7.054;2022-12-18T09:43:35;102018.28;;;-4.09;88.21
72925;BME280;61070;50.794;7.054;2022-12-18T09:46:06;102017.56;;;-4.20;88.94
72925;BME280;61070;50.794;7.054;2022-12-18T09:48:36;102012.63;;;-4.17;88.85
72925;BME280;61070;50.794;7.054;2022-12-18T09:51:12;102016.44;;;-3.98;88.01
72925;BME280;61070;50.794;7.054;2022-12-18T09:53:40;102005.66;;;-3.79;87.31
72925;BME280;61070;50.794;7.054;2022-12-18T09:56:12;101991.72;;;-3.68;86.46
72925;BME280;61070;50.794;7.054;2022-12-18T09:58:45;101997.88;;;-3.66;86.56
72925;BME280;61070;50.794;7.054;2022-12-18T10:01:19;101995.63;;;-3.62;86.59
72925;BME280;61070;50.794;7.054;2022-12-18T10:03:45;101992.16;;;-3.49;86.29
72925;BME280;61070;50.794;7.054;2022-12-18T10:06:19;101991.63;;;-3.43;85.82
72925;BME280;61070;50.794;7.054;2022-12-18T10:09:00;101988.56;;;-3.38;85.28
72925;BME280;61070;50.794;7.054;2022-12-18T10:11:40;101989.91;;;-3.30;84.78
72925;BME280;61070;50.794;7.054;2022-12-18T10:14:25;101989.22;;;-3.40;85.63
72925;BME280;61070;50.794;7.054;2022-12-18T10:17:03;101992.22;;;-3.21;84.47
72925;BME280;61070;50.794;7.054;2022-12-18T10:19:35;101994.31;;;-3.29;84.33
72925;BME280;61070;50.794;7.054;2022-12-18T10:22:14;101983.34;;;-3.11;84.49
72925;BME280;61070;50.794;7.054;2022-12-18T10:27:23;101981.84;;;-3.08;84.32
72925;BME280;61070;50.794;7.054;2022-12-18T10:29:50;101978.03;;;-3.00;84.00
72925;BME280;61070;50.794;7.054;2022-12-18T10:32:19;101964.59;;;-2.94;83.95
72925;BME280;61070;50.794;7.054;2022-12-18T10:34:46;101977.00;;;-2.88;84.17
72925;BME280;61070;50.794;7.054;2022-12-18T10:37:17;101983.28;;;-2.85;83.36
72925;BME280;61070;50.794;7.054;2022-12-18T10:39:46;101985.28;;;-2.81;83.46
72925;BME280;61070;50.794;7.054;2022-12-18T10:42:17;101974.56;;;-2.72;83.76
72925;BME280;61070;50.794;7.054;2022-12-18T10:44:43;101971.06;;;-2.73;83.13
72925;BME280;61070;50.794;7.054;2022-12-18T10:47:14;101966.38;;;-2.65;82.94
72925;BME280;61070;50.794;7.054;2022-12-18T10:49:48;101962.25;;;-2.48;82.28
72925;BME280;61070;50.794;7.054;2022-12-18T10:52:18;101972.22;;;-2.54;82.66
72925;BME280;61070;50.794;7.054;2022-12-18T10:54:51;101961.84;;;-2.54;82.55
72925;BME280;61070;50.794;7.054;2022-12-18T10:57:29;101954.31;;;-2.37;81.77
72925;BME280;61070;50.794;7.054;2022-12-18T10:59:58;101959.75;;;-2.32;81.77
72925;BME280;61070;50.794;7.054;2022-12-18T11:02:27;101966.53;;;-2.49;82.09
72925;BME280;61070;50.794;7.054;2022-12-18T11:04:52;101960.53;;;-2.48;81.87
72925;BME280;61070;50.794;7.054;2022-12-18T11:07:18;101948.31;;;-2.36;81.72
72925;BME280;61070;50.794;7.054;2022-12-18T11:09:43;101939.00;;;-2.32;81.04
72925;BME280;61070;50.794;7.054;2022-12-18T11:12:17;101932.81;;;-2.34;81.00
72925;BME280;61070;50.794;7.054;2022-12-18T11:14:47;101928.16;;;-2.40;81.22
72925;BME280;61070;50.794;7.054;2022-12-18T11:19:52;101938.38;;;-2.28;81.25
72925;BME280;61070;50.794;7.054;2022-12-18T11:22:26;101938.09;;;-2.18;81.21
72925;BME280;61070;50.794;7.054;2022-12-18T11:24:56;101932.56;;;-2.09;81.19
72925;BME280;61070;50.794;7.054;2022-12-18T11:27:23;101946.09;;;-2.15;81.48
72925;BME280;61070;50.794;7.054;2022-12-18T11:29:50;101933.28;;;-2.12;80.76
72925;BME280;61070;50.794;7.054;2022-12-18T11:32:33;101938.91;;;-2.19;80.68
72925;BME280;61070;50.794;7.054;2022-12-18T11:35:12;101936.16;;;-2.22;80.87
72925;BME280;61070;50.794;7.054;2022-12-18T11:37:42;101924.97;;;-2.21;80.85
72925;BME280;61070;50.794;7.054;2022-12-18T11:40:20;101924.41;;;-2.30;81.00
72925;BME280;61070;50.794;7.054;2022-12-18T11:43:13;101926.13;;;-2.16;81.80
72925;BME280;61070;50.794;7.054;2022-12-18T11:45:45;101922.75;;;-2.15;80.95
72925;BME280;61070;50.794;7.054;2022-12-18T11:48:18;101914.75;;;-2.18;80.43
72925;BME280;61070;50.794;7.054;2022-12-18T11:50:52;101904.75;;;-2.12;80.46
72925;BME280;61070;50.794;7.054;2022-12-18T11:53:19;101910.75;;;-2.13;80.53
72925;BME280;61070;50.794;7.054;2022-12-18T12:01:39;101895.53;;;-2.21;81.34
72925;BME280;61070;50.794;7.054;2022-12-18T12:04:43;101890.59;;;-2.17;81.28
72925;BME280;61070;50.794;7.054;2022-12-18T12:07:36;101884.09;;;-2.25;81.60
72925;BME280;61070;50.794;7.054;2022-12-18T12:13:05;101874.50;;;-2.26;81.29
72925;BME280;61070;50.794;7.054;2022-12-18T12:16:07;101870.56;;;-2.34;81.54
72925;BME280;61070;50.794;7.054;2022-12-18T12:29:20;101850.22;;;-1.97;81.02
72925;BME280;61070;50.794;7.054;2022-12-18T12:31:58;101853.78;;;-1.95;80.53
72925;BME280;61070;50.794;7.054;2022-12-18T12:34:34;101845.47;;;-2.04;81.32
72925;BME280;61070;50.794;7.054;2022-12-18T12:39:36;101835.63;;;-1.95;81.19
72925;BME280;61070;50.794;7.054;2022-12-18T12:42:12;101847.63;;;-1.97;80.97
72925;BME280;61070;50.794;7.054;2022-12-18T12:45:01;101838.63;;;-2.03;81.56
72925;BME280;61070;50.794;7.054;2022-12-18T12:47:33;101841.91;;;-1.91;81.47
72925;BME280;61070;50.794;7.054;2022-12-18T12:50:03;101844.22;;;-1.81;80.70
72925;BME280;61070;50.794;7.054;2022-12-18T12:52:37;101853.25;;;-1.89;80.12
72925;BME280;61070;50.794;7.054;2022-12-18T12:55:07;101853.66;;;-1.82;80.20
72925;BME280;61070;50.794;7.054;2022-12-18T12:57:40;101849.00;;;-1.72;79.97
72925;BME280;61070;50.794;7.054;2022-12-18T13:00:16;101845.88;;;-1.67;79.16
72925;BME280;61070;50.794;7.054;2022-12-18T13:03:19;101827.69;;;-1.67;79.17
72925;BME280;61070;50.794;7.054;2022-12-18T13:05:54;101820.44;;;-1.72;79.35
72925;BME280;61070;50.794;7.054;2022-12-18T13:08:24;101837.81;;;-1.71;79.64
72925;BME280;61070;50.794;7.054;2022-12-18T13:10:50;101837.50;;;-1.61;78.95
72925;BME280;61070;50.794;7.054;2022-12-18T13:13:53;101831.91;;;-1.69;78.73
72925;BME280;61070;50.794;7.054;2022-12-18T13:16:21;101838.59;;;-1.58;79.08
72925;BME280;61070;50.794;7.054;2022-12-18T13:18:51;101839.78;;;-1.67;79.02
72925;BME280;61070;50.794;7.054;2022-12-18T13:21:24;101818.94;;;-1.69;78.95
72925;BME280;61070;50.794;7.054;2022-12-18T13:23:52;101817.75;;;-1.74;79.25
72925;BME280;61070;50.794;7.054;2022-12-18T13:31:13;101829.31;;;-1.69;78.77
72925;BME280;61070;50.794;7.054;2022-12-18T13:33:45;101832.38;;;-1.76;78.77
72925;BME280;61070;50.794;7.054;2022-12-18T13:38:40;101826.19;;;-1.78;79.30
72925;BME280;61070;50.794;7.054;2022-12-18T13:43:54;101824.91;;;-1.70;79.15
72925;BME280;61070;50.794;7.054;2022-12-18T13:46:48;101820.41;;;-1.89;79.66
72925;BME280;61070;50.794;7.054;2022-12-18T13:51:54;101824.69;;;-1.89;79.58
72925;BME280;61070;50.794;7.054;2022-12-18T13:54:28;101815.09;;;-1.76;79.91
72925;BME280;61070;50.794;7.054;2022-12-18T13:56:55;101818.06;;;-1.84;79.78
72925;BME280;61070;50.794;7.054;2022-12-18T13:59:34;101817.53;;;-1.93;80.27
72925;BME280;61070;50.794;7.054;2022-12-18T14:02:09;101831.53;;;-2.06;80.69